Time;durP1;ratioP1;P1;durP2;ratioP2;P2;SDS_P1;SDS_P2;PMS_P1;PMS_P2;Temp;Humidity;BMP_temperature;BMP_pressure;BME280_temperature;BME280_humidity;BME280_pressure;Samples;Min_cycle;Max_cycle;Signal;HPM_P1;HPM_P2
2021/06/25 00:02:42;;;;;;;26.02;12.73;;;15.10;99.90;;;;;;12382671;28;20145;-39
2021/06/25 00:08:44;;;;;;;22.83;12.85;;;15.20;99.90;;;;;;12389578;28;20717;-39
2021/06/25 00:14:46;;;;;;;25.40;13.35;;;15.10;99.90;;;;;;12390720;28;20072;-39
2021/06/25 00:20:48;;;;;;;18.63;13.50;;;15.00;99.90;;;;;;12387254;28;20053;-40
2021/06/25 00:26:50;;;;;;;18.77;12.60;;;15.00;99.90;;;;;;12390641;28;20107;-41
2021/06/25 00:32:52;;;;;;;26.75;13.07;;;14.90;99.90;;;;;;12393226;28;20058;-39
2021/06/25 00:38:54;;;;;;;20.52;13.35;;;14.80;99.90;;;;;;12395910;28;20049;-40
2021/06/25 00:44:56;;;;;;;16.95;13.55;;;14.90;99.90;;;;;;12396806;28;20173;-40
2021/06/25 00:50:58;;;;;;;20.42;13.75;;;15.00;99.90;;;;;;12390027;28;20049;-40
2021/06/25 00:57:00;;;;;;;31.23;13.98;;;15.00;99.90;;;;;;12391573;28;20091;-39
2021/06/25 01:03:02;;;;;;;23.50;13.68;;;15.10;99.90;;;;;;12387359;28;20845;-39
2021/06/25 01:09:05;;;;;;;19.20;14.40;;;15.00;99.90;;;;;;12390235;28;20047;-39
2021/06/25 01:15:08;;;;;;;28.90;13.67;;;15.00;99.90;;;;;;12392309;28;20489;-39
2021/06/25 01:21:10;;;;;;;30.20;15.13;;;14.90;99.90;;;;;;12392168;28;20160;-39
2021/06/25 01:27:13;;;;;;;26.75;13.82;;;14.80;99.90;;;;;;12401031;28;20056;-40
2021/06/25 01:33:18;;;;;;;32.23;15.47;;;14.80;99.90;;;;;;12396896;28;20054;-40
2021/06/25 01:39:20;;;;;;;22.83;15.82;;;14.90;99.90;;;;;;12400438;28;20058;-39
2021/06/25 01:45:24;;;;;;;27.63;14.85;;;14.90;99.90;;;;;;12395903;28;20050;-39
2021/06/25 01:51:25;;;;;;;23.65;15.93;;;15.00;99.90;;;;;;12395596;28;20058;-39
2021/06/25 01:57:30;;;;;;;23.15;14.25;;;14.90;99.90;;;;;;12394613;28;20065;-39
2021/06/25 02:03:32;;;;;;;22.23;13.50;;;15.00;99.90;;;;;;12398037;28;20467;-40
2021/06/25 02:09:34;;;;;;;27.33;15.25;;;14.90;99.90;;;;;;12399312;28;20129;-39
2021/06/25 02:15:36;;;;;;;24.13;15.02;;;14.70;99.90;;;;;;12399742;28;20132;-39
2021/06/25 02:21:38;;;;;;;21.98;15.48;;;14.70;99.90;;;;;;12393257;28;20046;-39
2021/06/25 02:27:40;;;;;;;24.95;14.95;;;14.90;99.90;;;;;;12397881;28;20062;-40
2021/06/25 02:33:42;;;;;;;27.95;16.33;;;14.90;99.90;;;;;;12395030;28;20054;-40
2021/06/25 02:39:44;;;;;;;36.38;13.93;;;14.80;99.90;;;;;;12394956;28;20046;-39
2021/06/25 02:45:45;;;;;;;27.52;13.60;;;14.80;99.90;;;;;;12391962;28;20956;-39
2021/06/25 02:51:47;;;;;;;26.33;15.43;;;14.60;99.90;;;;;;12392808;28;20108;-43
2021/06/25 02:57:49;;;;;;;24.33;15.50;;;14.40;99.90;;;;;;12377152;28;20054;-39
2021/06/25 03:03:51;;;;;;;30.33;15.27;;;14.30;99.90;;;;;;12394485;28;20054;-39
2021/06/25 03:09:53;;;;;;;28.33;15.63;;;14.30;99.90;;;;;;12394763;28;20149;-42
2021/06/25 03:15:55;;;;;;;26.52;17.20;;;14.40;99.90;;;;;;12394007;28;20054;-40
2021/06/25 03:21:56;;;;;;;24.95;17.45;;;14.40;99.90;;;;;;12392336;28;20042;-39
2021/06/25 03:27:58;;;;;;;37.17;14.77;;;14.40;99.90;;;;;;12392461;28;20130;-39
2021/06/25 03:34:00;;;;;;;32.90;15.07;;;14.40;99.90;;;;;;12393339;28;20475;-39
2021/06/25 03:40:11;;;;;;;28.38;16.10;;;14.20;99.90;;;;;;12387035;28;20066;-41
2021/06/25 03:46:13;;;;;;;23.52;17.15;;;13.90;99.90;;;;;;12386399;28;20137;-40
2021/06/25 03:52:15;;;;;;;26.08;17.50;;;14.00;99.90;;;;;;12391968;28;20062;-38
2021/06/25 03:58:17;;;;;;;22.90;17.58;;;14.10;99.90;;;;;;12394380;28;20402;-41
2021/06/25 04:04:19;;;;;;;31.08;18.70;;;14.10;99.90;;;;;;12390447;28;20710;-41
2021/06/25 04:10:21;;;;;;;22.63;18.42;;;14.00;99.90;;;;;;12390588;28;20085;-39
2021/06/25 04:16:23;;;;;;;22.80;16.92;;;14.10;99.90;;;;;;12389339;28;20129;-41
2021/06/25 04:22:25;;;;;;;22.60;16.40;;;14.20;99.90;;;;;;12389060;28;20133;-40
2021/06/25 04:28:28;;;;;;;27.95;16.80;;;14.20;99.90;;;;;;12397261;28;20046;-40
2021/06/25 04:34:30;;;;;;;28.80;17.70;;;14.30;99.90;;;;;;12392048;28;20058;-40
2021/06/25 04:40:33;;;;;;;25.30;18.05;;;14.60;99.90;;;;;;12383836;28;20107;-40
2021/06/25 04:46:35;;;;;;;23.90;18.30;;;14.70;99.90;;;;;;12397027;28;20177;-39
2021/06/25 04:52:38;;;;;;;27.30;18.45;;;14.70;99.90;;;;;;12385594;28;20133;-40
2021/06/25 04:58:39;;;;;;;27.15;18.17;;;14.70;99.90;;;;;;12393852;28;20569;-39
2021/06/25 05:04:41;;;;;;;28.50;18.70;;;14.90;99.90;;;;;;12395627;28;20069;-39
2021/06/25 05:10:43;;;;;;;26.48;20.52;;;15.00;99.90;;;;;;12402159;28;20056;-39
2021/06/25 05:16:45;;;;;;;23.63;19.50;;;15.20;99.90;;;;;;12397017;28;20064;-40
2021/06/25 05:22:47;;;;;;;29.50;20.38;;;15.30;99.90;;;;;;12394277;28;20532;-41
2021/06/25 05:28:49;;;;;;;24.52;20.60;;;15.40;99.90;;;;;;12398896;28;20095;-39
2021/06/25 05:34:51;;;;;;;24.23;21.50;;;15.40;99.90;;;;;;12400910;28;20053;-39
2021/06/25 05:40:53;;;;;;;22.95;20.38;;;15.60;99.90;;;;;;12393163;28;20100;-40
2021/06/25 05:46:55;;;;;;;27.20;20.52;;;15.60;99.90;;;;;;12397604;28;20168;-39
2021/06/25 05:52:56;;;;;;;23.88;20.17;;;15.50;99.90;;;;;;12399197;28;20320;-39
2021/06/25 05:58:58;;;;;;;24.95;21.20;;;15.70;99.90;;;;;;12399873;28;20148;-41
2021/06/25 06:05:00;;;;;;;24.08;19.40;;;15.90;99.90;;;;;;12391188;28;20043;-42
2021/06/25 06:11:02;;;;;;;21.35;17.88;;;15.90;99.90;;;;;;12397344;28;20104;-40
2021/06/25 06:17:04;;;;;;;21.25;18.00;;;16.00;99.90;;;;;;12398272;28;20446;-41
2021/06/25 06:35:48;;;;;;;22.80;18.42;;;16.20;99.90;;;;;;12387822;28;20054;-42
2021/06/25 06:41:50;;;;;;;21.17;18.17;;;16.60;99.90;;;;;;12390394;28;20054;-41
2021/06/25 06:47:52;;;;;;;20.58;18.25;;;16.60;99.90;;;;;;12386732;28;20153;-40
2021/06/25 06:53:56;;;;;;;22.65;18.13;;;16.50;99.90;;;;;;12390398;28;20108;-40
2021/06/25 06:59:58;;;;;;;;;;;16.70;99.90;;;;;;12392209;28;20088;-40
2021/06/25 07:06:00;;;;;;;22.75;19.05;;;16.70;99.90;;;;;;12390564;28;20329;-41
2021/06/25 07:12:03;;;;;;;23.75;18.75;;;16.60;99.90;;;;;;12392030;28;20057;-41
2021/06/25 07:18:05;;;;;;;23.17;18.98;;;16.50;99.90;;;;;;12390547;28;20446;-41
2021/06/25 07:24:07;;;;;;;20.42;16.80;;;16.60;99.90;;;;;;12390108;28;20054;-39
2021/06/25 07:30:10;;;;;;;23.27;18.98;;;16.60;99.90;;;;;;12387214;28;20095;-40
2021/06/25 07:36:12;;;;;;;22.05;19.25;;;16.70;99.90;;;;;;12387820;28;20042;-40
2021/06/25 07:42:14;;;;;;;22.92;19.77;;;16.70;99.90;;;;;;12384291;28;20132;-40
2021/06/25 07:48:15;;;;;;;30.83;21.95;;;17.00;99.90;;;;;;12386657;28;20137;-40
2021/06/25 07:54:17;;;;;;;27.98;21.90;;;17.20;99.90;;;;;;12385148;28;20396;-40
2021/06/25 08:00:19;;;;;;;25.63;19.95;;;17.30;99.90;;;;;;12381758;28;20162;-39
2021/06/25 08:06:22;;;;;;;21.83;18.88;;;17.50;99.90;;;;;;12384320;28;20530;-39
2021/06/25 08:12:23;;;;;;;24.58;18.83;;;17.70;99.90;;;;;;12386149;28;20050;-39
2021/06/25 08:18:25;;;;;;;22.42;19.63;;;17.80;99.90;;;;;;12383586;28;20085;-40
2021/06/25 08:24:27;;;;;;;29.00;20.40;;;17.80;99.90;;;;;;12382703;28;20046;-41
2021/06/25 08:30:29;;;;;;;27.02;22.05;;;18.00;99.90;;;;;;12381504;28;20046;-39
2021/06/25 08:36:31;;;;;;;30.25;23.23;;;17.70;99.90;;;;;;12392769;28;20117;-40
2021/06/25 08:42:38;;;;;;;30.75;21.83;;;18.00;99.90;;;;;;12392906;28;20399;-39
2021/06/25 08:48:42;;;;;;;29.10;21.23;;;18.40;99.90;;;;;;12397280;28;20732;-39
2021/06/25 08:54:44;;;;;;;29.92;20.58;;;18.50;99.90;;;;;;12397944;28;20079;-40
2021/06/25 09:00:48;;;;;;;24.25;19.17;;;18.80;99.90;;;;;;12398606;28;20073;-40
2021/06/25 09:06:53;;;;;;;24.60;19.53;;;;;;;;;;12390649;28;20046;-40
2021/06/25 09:13:14;;;;;;;25.27;19.80;;;19.20;99.90;;;;;;12396760;28;20117;-40
2021/06/25 09:19:17;;;;;;;23.23;19.05;;;19.20;99.90;;;;;;12394668;28;20054;-40
2021/06/25 09:25:19;;;;;;;21.93;17.30;;;19.10;99.90;;;;;;12395031;28;20073;-39
2021/06/25 09:31:23;;;;;;;22.67;16.65;;;18.60;99.90;;;;;;12395368;28;20046;-42
2021/06/25 09:37:25;;;;;;;22.05;17.23;;;19.10;99.90;;;;;;12398409;28;20636;-39
2021/06/25 09:43:33;;;;;;;18.13;15.32;;;19.20;99.90;;;;;;12393160;28;20096;-39
2021/06/25 09:49:47;;;;;;;15.80;12.68;;;19.10;99.90;;;;;;12382255;28;20046;-39
2021/06/25 09:55:59;;;;;;;13.98;10.63;;;19.40;99.90;;;;;;12397923;28;20073;-39
2021/06/25 10:08:21;;;;;;;15.93;10.63;;;19.40;99.90;;;;;;12394295;28;20096;-41
2021/06/25 10:14:23;;;;;;;12.23;10.52;;;19.60;99.90;;;;;;12393851;28;20062;-41
2021/06/25 10:20:27;;;;;;;15.68;10.95;;;19.90;99.90;;;;;;12393329;28;20076;-40
2021/06/25 10:26:30;;;;;;;17.08;11.20;;;20.30;99.90;;;;;;12391131;28;20046;-40
2021/06/25 10:32:36;;;;;;;13.65;10.45;;;20.60;99.90;;;;;;12393850;28;20053;-40
2021/06/25 10:38:45;;;;;;;14.25;9.60;;;20.60;99.90;;;;;;12390763;28;20058;-41
2021/06/25 10:44:55;;;;;;;13.57;9.18;;;20.90;99.90;;;;;;12387851;28;20050;-40
2021/06/25 10:51:33;;;;;;;13.50;9.18;;;20.90;99.90;;;;;;12389496;28;20054;-40
2021/06/25 10:57:56;;;;;;;12.25;9.20;;;20.80;99.90;;;;;;12381972;28;20403;-39
2021/06/25 11:03:59;;;;;;;14.10;9.40;;;20.70;99.90;;;;;;12382295;28;20050;-40
2021/06/25 11:10:04;;;;;;;11.30;8.05;;;20.90;99.90;;;;;;12389944;28;20292;-42
2021/06/25 11:16:32;;;;;;;13.48;11.00;;;20.90;99.90;;;;;;12387791;28;20081;-40
2021/06/25 11:22:39;;;;;;;14.85;11.65;;;21.00;99.90;;;;;;12381259;28;20148;-39
2021/06/25 11:28:42;;;;;;;17.38;13.38;;;21.10;99.90;;;;;;12392116;28;20108;-40
2021/06/25 11:34:44;;;;;;;12.95;10.30;;;21.20;99.90;;;;;;12386392;28;20141;-40
2021/06/25 11:40:49;;;;;;;13.70;10.63;;;21.30;99.90;;;;;;12392648;28;20054;-39
2021/06/25 11:46:59;;;;;;;16.02;11.63;;;21.40;99.90;;;;;;12392017;28;20100;-40
2021/06/25 11:53:01;;;;;;;15.38;11.55;;;21.60;99.90;;;;;;12387520;28;20141;-40
2021/06/25 11:59:08;;;;;;;13.50;11.50;;;21.90;99.90;;;;;;12390203;28;20088;-40
2021/06/25 12:05:15;;;;;;;11.55;8.48;;;21.70;99.90;;;;;;12392205;28;20057;-40
2021/06/25 12:11:17;;;;;;;8.77;7.47;;;21.90;99.90;;;;;;12391318;28;20070;-40
2021/06/25 12:17:19;;;;;;;9.32;7.15;;;22.00;99.90;;;;;;12396448;28;20140;-43
2021/06/25 12:23:21;;;;;;;13.20;9.00;;;22.20;99.90;;;;;;12393658;28;20061;-40
2021/06/25 12:29:28;;;;;;;11.95;7.80;;;22.30;99.90;;;;;;12395852;28;20136;-40
2021/06/25 12:35:35;;;;;;;12.15;8.00;;;22.50;99.90;;;;;;12387703;28;20054;-40
2021/06/25 12:41:41;;;;;;;11.10;7.15;;;22.40;99.90;;;;;;12389008;28;20081;-40
2021/06/25 12:47:44;;;;;;;9.35;6.53;;;22.00;99.90;;;;;;12396074;28;20081;-40
2021/06/25 12:53:54;;;;;;;8.07;6.25;;;21.90;99.90;;;;;;12380531;28;20058;-40
2021/06/25 12:59:56;;;;;;;6.90;4.93;;;22.20;99.90;;;;;;12385370;28;20061;-40
2021/06/25 13:06:01;;;;;;;9.85;6.80;;;22.70;99.90;;;;;;12388781;28;20426;-40
2021/06/25 13:12:14;;;;;;;7.70;6.07;;;22.70;99.90;;;;;;12393693;28;20050;-40
2021/06/25 13:18:25;;;;;;;10.00;7.07;;;22.80;99.90;;;;;;12395115;28;20293;-40
2021/06/25 13:24:48;;;;;;;7.50;4.78;;;22.50;99.90;;;;;;12399745;28;20050;-39
2021/06/25 13:31:07;;;;;;;7.90;4.07;;;22.80;99.90;;;;;;12393868;28;20770;-39
2021/06/25 13:37:09;;;;;;;7.50;3.50;;;23.10;99.90;;;;;;12397799;28;20073;-40
2021/06/25 13:43:20;;;;;;;5.03;2.53;;;23.20;99.90;;;;;;12399287;28;20569;-39
2021/06/25 13:49:22;;;;;;;4.43;2.92;;;23.40;96.90;;;;;;12392724;28;20050;-40
2021/06/25 13:55:26;;;;;;;5.13;3.28;;;23.40;92.20;;;;;;12394847;28;20054;-39
2021/06/25 14:01:45;;;;;;;5.28;3.25;;;23.50;96.50;;;;;;12392625;28;20057;-39
2021/06/25 14:08:01;;;;;;;5.10;3.70;;;23.80;99.90;;;;;;12390274;28;20050;-39
2021/06/25 14:14:08;;;;;;;8.75;3.50;;;23.40;94.20;;;;;;12396051;28;20326;-40
2021/06/25 14:20:10;;;;;;;5.80;2.85;;;23.40;94.60;;;;;;12389122;28;20441;-41
2021/06/25 14:26:12;;;;;;;4.38;3.30;;;23.20;99.20;;;;;;12395382;28;20768;-41
2021/06/25 14:32:14;;;;;;;5.47;2.17;;;23.50;96.40;;;;;;12389260;28;20050;-40
2021/06/25 14:38:16;;;;;;;4.53;3.00;;;23.80;96.60;;;;;;12394151;28;20764;-40
2021/06/25 14:44:18;;;;;;;5.60;3.30;;;23.60;96.80;;;;;;12392380;28;20140;-39
2021/06/25 14:50:22;;;;;;;5.40;3.38;;;23.50;99.00;;;;;;12391236;28;20084;-39
2021/06/25 14:56:24;;;;;;;3.45;2.25;;;23.30;96.80;;;;;;12393918;28;20062;-40
2021/06/25 15:02:26;;;;;;;4.25;2.45;;;23.20;99.90;;;;;;12388017;28;20055;-41
2021/06/25 15:08:28;;;;;;;4.55;2.33;;;23.50;99.90;;;;;;12395540;28;20053;-40
2021/06/25 15:14:30;;;;;;;4.03;1.58;;;23.50;99.90;;;;;;12387622;28;20080;-40
2021/06/25 15:20:32;;;;;;;2.83;2.00;;;23.50;99.90;;;;;;12393131;28;20081;-41
2021/06/25 15:26:35;;;;;;;3.00;2.05;;;23.40;99.90;;;;;;12375260;28;20081;-41
2021/06/25 15:32:39;;;;;;;4.22;2.47;;;23.30;99.90;;;;;;12387180;28;20103;-42
2021/06/25 15:38:40;;;;;;;3.80;2.85;;;23.00;99.90;;;;;;12384116;28;20058;-40
2021/06/25 15:44:42;;;;;;;3.78;2.60;;;23.00;99.90;;;;;;12384925;28;20476;-43
2021/06/25 15:50:44;;;;;;;5.10;3.33;;;23.10;99.90;;;;;;12385677;28;20073;-40
2021/06/25 15:56:46;;;;;;;5.03;3.20;;;23.20;99.90;;;;;;12375842;28;20095;-42
2021/06/25 16:02:48;;;;;;;5.30;3.20;;;23.50;99.90;;;;;;12381818;28;20053;-40
2021/06/25 16:09:06;;;;;;;4.25;3.30;;;23.40;99.90;;;;;;12381616;28;20049;-40
2021/06/25 16:15:09;;;;;;;8.20;3.70;;;23.70;99.90;;;;;;12380353;28;20058;-41
2021/06/25 16:21:12;;;;;;;7.30;3.83;;;23.50;99.90;;;;;;12387515;28;20275;-41
2021/06/25 16:27:16;;;;;;;6.38;4.63;;;23.10;99.90;;;;;;12382731;28;20046;-39
2021/06/25 16:33:19;;;;;;;6.93;4.22;;;22.70;99.90;;;;;;12385027;28;20046;-39
2021/06/25 16:39:21;;;;;;;7.65;4.53;;;22.30;99.90;;;;;;12379025;28;20046;-40
2021/06/25 16:45:23;;;;;;;8.70;4.70;;;22.30;99.90;;;;;;12385616;28;20042;-39
2021/06/25 16:51:25;;;;;;;7.10;5.63;;;22.40;99.90;;;;;;12384727;28;20057;-39
2021/06/25 16:57:28;;;;;;;11.00;7.35;;;22.20;99.90;;;;;;12393585;28;20054;-40
2021/06/25 17:03:30;;;;;;;13.25;9.13;;;21.90;99.90;;;;;;12384843;28;20493;-39
2021/06/25 17:09:32;;;;;;;13.27;9.98;;;21.60;99.90;;;;;;12386160;28;20998;-40
2021/06/25 17:15:39;;;;;;;12.40;10.07;;;21.20;99.90;;;;;;12383872;28;21626;-39
2021/06/25 17:21:40;;;;;;;16.17;10.73;;;21.10;99.90;;;;;;12391200;28;20050;-41
2021/06/25 17:27:42;;;;;;;15.85;12.30;;;21.30;99.90;;;;;;12386460;28;20054;-39
2021/06/25 17:33:44;;;;;;;18.40;13.70;;;21.20;99.90;;;;;;12388861;28;20049;-40
2021/06/25 17:39:46;;;;;;;17.48;13.52;;;20.90;99.90;;;;;;12390532;28;20113;-40
2021/06/25 17:45:48;;;;;;;20.48;14.43;;;20.70;99.90;;;;;;12389730;28;20050;-39
2021/06/25 17:51:50;;;;;;;16.98;14.20;;;20.50;99.90;;;;;;12385813;28;20670;-39
2021/06/25 17:57:52;;;;;;;20.42;15.20;;;20.40;99.90;;;;;;12392046;28;20483;-40
2021/06/25 18:03:54;;;;;;;18.98;14.70;;;20.40;99.90;;;;;;12386756;28;20050;-39
2021/06/25 18:09:56;;;;;;;16.80;12.50;;;20.30;99.90;;;;;;12392136;28;20104;-40
2021/06/25 18:15:58;;;;;;;15.85;11.93;;;20.40;99.90;;;;;;12386727;28;20062;-39
2021/06/25 18:22:01;;;;;;;16.52;11.45;;;20.40;99.90;;;;;;12383828;28;20045;-39
2021/06/25 18:28:04;;;;;;;14.60;11.13;;;20.40;99.90;;;;;;12392525;28;20056;-39
2021/06/25 18:34:06;;;;;;;15.68;11.13;;;20.30;99.90;;;;;;12389517;28;20137;-40
2021/06/25 18:40:11;;;;;;;13.65;11.23;;;20.20;99.90;;;;;;12384840;28;20062;-39
2021/06/25 18:46:13;;;;;;;16.50;11.80;;;20.20;99.90;;;;;;12389803;28;20758;-39
2021/06/25 18:52:15;;;;;;;16.27;12.38;;;20.10;99.90;;;;;;12385264;28;20768;-40
2021/06/25 18:58:18;;;;;;;17.90;13.60;;;19.90;99.90;;;;;;12387112;28;20061;-41
2021/06/25 19:04:20;;;;;;;19.15;13.30;;;19.90;99.90;;;;;;12387041;28;20536;-39
2021/06/25 19:10:22;;;;;;;19.67;13.52;;;19.80;99.90;;;;;;12391819;28;20054;-39
2021/06/25 19:16:24;;;;;;;21.70;14.30;;;19.90;99.90;;;;;;12384344;28;20107;-40
2021/06/25 19:22:26;;;;;;;21.05;14.68;;;19.70;99.90;;;;;;12393223;28;20581;-40
2021/06/25 19:28:28;;;;;;;17.08;13.55;;;19.40;99.90;;;;;;12389919;28;20062;-41
2021/06/25 19:34:30;;;;;;;19.38;12.70;;;19.10;99.90;;;;;;12387538;28;20046;-39
2021/06/25 19:40:32;;;;;;;15.48;13.20;;;18.80;99.90;;;;;;12389753;28;20053;-39
2021/06/25 19:46:34;;;;;;;14.65;13.13;;;18.50;99.90;;;;;;12383869;28;20077;-39
2021/06/25 19:52:38;;;;;;;15.23;13.30;;;18.30;99.90;;;;;;12386308;28;20361;-40
2021/06/25 19:58:39;;;;;;;20.13;13.82;;;18.30;99.90;;;;;;12395523;28;20041;-39
2021/06/25 20:04:41;;;;;;;19.42;13.80;;;18.30;99.90;;;;;;12388320;28;20061;-40
2021/06/25 20:10:43;;;;;;;18.75;13.77;;;18.40;99.90;;;;;;12388733;28;20130;-40
2021/06/25 20:16:46;;;;;;;15.35;12.38;;;18.30;99.90;;;;;;12392284;28;20054;-39
2021/06/25 20:22:48;;;;;;;18.75;14.48;;;18.10;99.90;;;;;;12387326;28;20061;-39
2021/06/25 20:28:50;;;;;;;17.75;13.05;;;17.90;99.90;;;;;;12400027;28;20434;-39
2021/06/25 20:34:52;;;;;;;18.08;14.35;;;18.00;99.90;;;;;;12398241;28;20061;-39
2021/06/25 20:40:55;;;;;;;17.67;13.40;;;18.10;99.90;;;;;;12398281;28;20133;-39
2021/06/25 20:46:57;;;;;;;17.67;13.40;;;18.10;99.90;;;;;;12397869;28;20133;-39
2021/06/25 20:52:58;;;;;;;19.52;14.05;;;18.10;99.90;;;;;;12399888;28;20054;-39
2021/06/25 20:59:00;;;;;;;17.77;13.95;;;18.20;99.90;;;;;;12398619;28;20348;-39
2021/06/25 21:05:07;;;;;;;19.50;14.35;;;18.10;99.90;;;;;;12394525;28;20130;-39
2021/06/25 21:11:08;;;;;;;15.07;13.45;;;18.00;99.90;;;;;;12399907;28;20053;-39
2021/06/25 21:17:10;;;;;;;18.90;13.10;;;18.10;99.90;;;;;;12398405;28;20140;-39
2021/06/25 21:23:13;;;;;;;16.83;13.48;;;18.00;99.90;;;;;;12390981;28;20046;-39
2021/06/25 21:29:15;;;;;;;17.48;12.05;;;18.00;99.90;;;;;;12397705;28;20046;-39
2021/06/25 21:35:17;;;;;;;14.75;12.48;;;17.90;99.90;;;;;;12398223;28;20283;-39
2021/06/25 21:41:19;;;;;;;16.77;12.27;;;17.90;99.90;;;;;;12393877;28;20544;-40
2021/06/25 21:47:21;;;;;;;16.58;11.75;;;17.90;99.90;;;;;;12398206;28;20990;-39
2021/06/25 21:53:23;;;;;;;14.88;11.93;;;17.90;99.90;;;;;;12392783;28;20164;-39
2021/06/25 21:59:25;;;;;;;17.80;13.25;;;18.00;99.90;;;;;;12386119;28;20130;-39
2021/06/25 22:05:26;;;;;;;16.90;12.73;;;18.00;99.90;;;;;;12396469;28;20039;-42
2021/06/25 22:11:28;;;;;;;16.10;11.90;;;17.90;99.90;;;;;;12389296;28;20180;-39
2021/06/25 22:17:30;;;;;;;14.98;12.23;;;17.90;99.90;;;;;;12396331;28;20470;-39
2021/06/25 22:23:32;;;;;;;13.20;11.80;;;18.00;99.90;;;;;;12397059;28;20056;-39
2021/06/25 22:29:34;;;;;;;13.57;12.10;;;17.90;99.90;;;;;;12394789;28;20041;-39
2021/06/25 22:35:36;;;;;;;15.65;12.07;;;17.60;99.90;;;;;;12388288;28;20045;-39
2021/06/25 22:41:37;;;;;;;16.45;12.18;;;17.60;99.90;;;;;;12395688;28;20054;-39
2021/06/25 22:47:39;;;;;;;16.73;12.60;;;17.30;99.90;;;;;;12394631;28;20599;-39
2021/06/25 22:53:41;;;;;;;18.27;14.32;;;17.30;99.90;;;;;;12388065;28;20465;-39
2021/06/25 22:59:43;;;;;;;17.25;13.75;;;17.30;99.90;;;;;;12393950;28;20115;-40
2021/06/25 23:05:45;;;;;;;17.95;14.60;;;17.50;99.90;;;;;;12390711;28;20045;-40
2021/06/25 23:11:46;;;;;;;17.90;14.10;;;17.20;99.90;;;;;;12396848;28;20078;-39
2021/06/25 23:17:48;;;;;;;17.65;13.68;;;17.20;99.90;;;;;;12382875;28;20061;-39
2021/06/25 23:23:50;;;;;;;18.65;14.07;;;17.10;99.90;;;;;;12393012;28;20046;-39
2021/06/25 23:29:52;;;;;;;19.13;15.05;;;17.00;99.90;;;;;;12392058;28;20137;-39
2021/06/25 23:35:54;;;;;;;18.33;14.10;;;17.00;99.90;;;;;;12391276;28;20050;-40
2021/06/25 23:41:56;;;;;;;20.77;15.00;;;17.10;99.90;;;;;;12391206;28;20054;-38
2021/06/25 23:47:57;;;;;;;16.92;13.57;;;17.00;99.90;;;;;;12392309;28;20099;-39
2021/06/25 23:53:59;;;;;;;18.83;15.25;;;17.20;99.90;;;;;;12388083;28;20062;-40
